Aviation Digital Data Service (ADDS)

Output produced by METARs form (0552 UTC 19 March 2019)
found at http://www.aviationweather.gov/metar/data/
 
Forecast for: TNCM (ST MAARTEN JULIA, VI)
Text: TNCM 190528Z 1906/2006 09007KT P6SM FEW020
Forecast period: 0600 to 1400 UTC 19 March 2019
Forecast type: FROM: standard forecast or significant change
Winds: from the E (90 degrees) at 8 MPH (7 knots; 3.6 m/s)
Visibility: 6 or more miles 10+ km)
Ceiling: at least 12,000 feet AGL
Clouds: few clouds at 2000 feet AGL
Weather: no significant weather forecast for this period
Text: FM191400 10010KT P6SM FEW020
Forecast period: 1400 to 2200 UTC 19 March 2019
Forecast type: FROM: standard forecast or significant change
Winds: from the E (100 degrees) at 12 MPH (10 knots; 5.1 m/s)
Visibility: 6 or more miles 10+ km)
Ceiling: at least 12,000 feet AGL
Clouds: few clouds at 2000 feet AGL
Weather: no significant weather forecast for this period
Text: FM192200 09009KT P6SM FEW020
Forecast period: 2200 UTC 19 March 2019 to 0600 UTC 20 March 2019
Forecast type: FROM: standard forecast or significant change
Winds: from the E (90 degrees) at 10 MPH (9 knots; 4.6 m/s)
Visibility: 6 or more miles 10+ km)
Ceiling: at least 12,000 feet AGL
Clouds: few clouds at 2000 feet AGL
Weather: no significant weather forecast for this period